createdAt,value
2022-09-16T00:00:01.122Z,11.7
2022-09-16T00:01:04.728Z,11.8
2022-09-16T00:02:02.535Z,12
2022-09-16T00:03:01.144Z,12.1
2022-09-16T00:04:01.136Z,12.1
2022-09-16T00:05:01.612Z,12
2022-09-16T00:06:06.638Z,12.1
2022-09-16T00:07:02.121Z,12.2
2022-09-16T00:08:01.864Z,12.3
2022-09-16T00:09:01.074Z,12.3
2022-09-16T00:10:01.107Z,12
2022-09-16T00:11:09.825Z,11.4
2022-09-16T00:12:01.391Z,11.7
2022-09-16T00:13:02.027Z,12
2022-09-16T00:14:01.116Z,11.9
2022-09-16T00:15:01.116Z,11.5
2022-09-16T00:16:12.337Z,11.4
2022-09-16T00:17:02.880Z,11.2
2022-09-16T00:18:02.854Z,11.4
2022-09-16T00:19:01.111Z,11.1
2022-09-16T00:20:01.054Z,10.6
2022-09-16T00:21:14.532Z,11
2022-09-16T00:22:01.063Z,10.8
2022-09-16T00:23:01.081Z,10.5
2022-09-16T00:24:01.087Z,10.5
2022-09-16T00:25:01.037Z,10.5
2022-09-16T00:26:16.124Z,10.6
2022-09-16T00:27:01.662Z,10.9
2022-09-16T00:28:01.109Z,10.9
2022-09-16T00:29:01.114Z,11.2
2022-09-16T00:30:01.126Z,11
2022-09-16T00:31:01.211Z,11.2
2022-09-16T00:32:01.125Z,10.8
2022-09-16T00:33:01.144Z,10.7
2022-09-16T00:34:01.232Z,10.9
2022-09-16T00:35:01.344Z,11.2
2022-09-16T00:36:01.357Z,10.6
2022-09-16T00:37:01.076Z,10.8
2022-09-16T00:38:01.680Z,11
2022-09-16T00:39:01.087Z,10.9
2022-09-16T00:40:01.121Z,10.9
2022-09-16T00:41:01.091Z,11.2
2022-09-16T00:42:01.506Z,11.1
2022-09-16T00:43:01.229Z,11.6
2022-09-16T00:44:01.116Z,11.3
2022-09-16T00:45:01.106Z,11.3
2022-09-16T00:46:01.034Z,11.4
2022-09-16T00:47:01.131Z,11.2
2022-09-16T00:48:01.051Z,11.4
2022-09-16T00:49:01.152Z,11.5
2022-09-16T00:50:01.813Z,11.5
2022-09-16T00:51:01.279Z,11.6
2022-09-16T00:52:01.043Z,11.6
2022-09-16T00:53:01.092Z,12.2
2022-09-16T00:54:01.085Z,12.2
2022-09-16T00:55:01.097Z,11.8
2022-09-16T00:56:01.106Z,12
2022-09-16T00:57:01.321Z,12.4
2022-09-16T00:58:01.196Z,12.4
2022-09-16T00:59:01.115Z,12
2022-09-16T01:00:01.552Z,12.2
2022-09-16T01:01:01.287Z,12.2
2022-09-16T01:02:01.244Z,12.2
2022-09-16T01:03:01.142Z,12.3
2022-09-16T01:04:01.170Z,12.4
2022-09-16T01:05:01.173Z,12.4
2022-09-16T01:06:01.056Z,12.7
2022-09-16T01:07:01.046Z,12.2
2022-09-16T01:08:01.446Z,12.4
2022-09-16T01:09:01.064Z,12.5
2022-09-16T01:10:00.761Z,12.4
2022-09-16T01:11:00.454Z,12.7
2022-09-16T01:12:00.413Z,12.8
2022-09-16T01:13:00.168Z,12.9
2022-09-16T01:13:59.821Z,12.5
2022-09-16T01:15:01.776Z,12.7
2022-09-16T01:16:01.579Z,12.4
2022-09-16T01:17:01.167Z,12.6
2022-09-16T01:18:01.337Z,12.6
2022-09-16T01:19:02.642Z,12.5
2022-09-16T01:20:01.416Z,12.6
2022-09-16T01:21:01.718Z,12.8
2022-09-16T01:22:01.854Z,12.6
2022-09-16T01:23:01.334Z,12.6
2022-09-16T01:24:01.981Z,12.7
2022-09-16T01:25:01.780Z,12.7
2022-09-16T01:26:01.076Z,12.8
2022-09-16T01:27:01.190Z,12.5
2022-09-16T01:28:01.097Z,12.8
2022-09-16T01:29:01.092Z,12.5
2022-09-16T01:30:01.096Z,12.7
2022-09-16T01:31:01.173Z,12.8
2022-09-16T01:32:01.961Z,12.6
2022-09-16T01:33:01.133Z,12.8
2022-09-16T01:34:01.129Z,13.1
2022-09-16T01:35:01.144Z,13
2022-09-16T01:36:01.153Z,13.1
2022-09-16T01:37:01.059Z,12.8
2022-09-16T01:38:01.439Z,12.9
2022-09-16T01:39:01.064Z,13
2022-09-16T01:40:01.195Z,13.3
2022-09-16T01:41:01.063Z,13
2022-09-16T01:42:01.046Z,13.2
2022-09-16T01:43:01.101Z,13.5
2022-09-16T01:44:01.353Z,13.9
2022-09-16T01:45:03.879Z,13.1
2022-09-16T01:46:01.103Z,12.9
2022-09-16T01:47:03.890Z,13.1
2022-09-16T01:48:01.366Z,13.3
2022-09-16T01:49:01.120Z,13.2
2022-09-16T01:50:01.548Z,13.1
2022-09-16T01:51:01.265Z,13
2022-09-16T01:52:08.248Z,13
2022-09-16T01:53:01.978Z,13.4
2022-09-16T01:54:02.073Z,13.1
2022-09-16T01:55:01.238Z,12.9
2022-09-16T01:56:01.233Z,12.9
2022-09-16T01:57:11.794Z,13.3
2022-09-16T01:58:01.768Z,13
2022-09-16T01:59:01.800Z,13
2022-09-16T02:00:01.940Z,13.3
2022-09-16T02:01:01.102Z,12.9
2022-09-16T02:02:16.226Z,13
2022-09-16T02:03:01.620Z,13
2022-09-16T02:04:02.220Z,13.1
2022-09-16T02:05:01.949Z,12.9
2022-09-16T02:06:01.971Z,13.1
2022-09-16T02:07:01.134Z,13.1
2022-09-16T02:08:01.158Z,13.2
2022-09-16T02:09:01.458Z,14
2022-09-16T02:10:02.932Z,13.8
2022-09-16T02:11:01.062Z,13.4
2022-09-16T02:12:01.067Z,13.6
2022-09-16T02:13:01.084Z,13.4
2022-09-16T02:14:00.935Z,13.5
2022-09-16T02:15:01.090Z,13.6
2022-09-16T02:16:01.193Z,13.9
2022-09-16T02:17:01.105Z,14.1
2022-09-16T02:18:01.122Z,13.8
2022-09-16T02:19:01.032Z,13.5
2022-09-16T02:20:01.120Z,13.6
2022-09-16T02:21:01.138Z,13.9
2022-09-16T02:22:01.152Z,13.9
2022-09-16T02:23:01.531Z,14.1
2022-09-16T02:24:01.046Z,13.9
2022-09-16T02:25:01.068Z,14.3
2022-09-16T02:26:01.068Z,14.4
2022-09-16T02:27:01.068Z,14.4
2022-09-16T02:28:01.078Z,14.4
2022-09-16T02:29:01.072Z,14.6
2022-09-16T02:30:01.106Z,14.9
2022-09-16T02:31:01.217Z,15.3
2022-09-16T02:32:01.300Z,15.1
2022-09-16T02:33:01.491Z,15.2
2022-09-16T02:34:01.115Z,15.4
2022-09-16T02:35:01.135Z,15.5
2022-09-16T02:36:01.118Z,15.5
2022-09-16T02:37:01.151Z,15.7
2022-09-16T02:38:01.143Z,15.8
2022-09-16T02:39:01.196Z,15.7
2022-09-16T02:40:01.257Z,16.1
2022-09-16T02:41:01.454Z,15.9
2022-09-16T02:42:02.081Z,16.2
2022-09-16T02:43:01.047Z,16.2
2022-09-16T02:44:01.772Z,16.2
2022-09-16T02:45:00.763Z,16.4
2022-09-16T02:46:00.476Z,16.5
2022-09-16T02:47:00.161Z,16.7
2022-09-16T02:47:59.872Z,16.8
2022-09-16T02:49:01.498Z,17.1
2022-09-16T02:50:01.494Z,16.8
2022-09-16T02:51:01.137Z,17.1
2022-09-16T02:52:01.142Z,17.1
2022-09-16T02:53:01.172Z,17.4
2022-09-16T02:54:01.040Z,17.4
2022-09-16T02:55:01.136Z,17.6
2022-09-16T02:56:01.048Z,17.4
2022-09-16T02:57:01.052Z,17.3
2022-09-16T02:58:01.456Z,17.2
2022-09-16T02:59:01.028Z,17.4
2022-09-16T03:00:01.112Z,17.5
2022-09-16T03:01:00.697Z,17.7
2022-09-16T03:02:00.479Z,17.9
2022-09-16T03:03:00.232Z,18.2
2022-09-16T03:03:59.962Z,18
2022-09-16T03:04:59.526Z,18
2022-09-16T03:06:01.092Z,18.1
2022-09-16T03:07:01.094Z,18.3
2022-09-16T03:08:01.125Z,18.4
2022-09-16T03:09:01.080Z,18.5
2022-09-16T03:10:01.597Z,18.7
2022-09-16T03:11:01.158Z,18.8
2022-09-16T03:12:01.067Z,18.8
2022-09-16T03:13:01.061Z,18.9
2022-09-16T03:14:01.147Z,19.3
2022-09-16T03:15:01.101Z,18.9
2022-09-16T03:16:01.152Z,19.1
2022-09-16T03:17:01.100Z,19.1
2022-09-16T03:18:01.176Z,19.2
2022-09-16T03:19:01.487Z,18.9
2022-09-16T03:20:01.113Z,18.9
2022-09-16T03:21:01.131Z,18.8
2022-09-16T03:22:01.197Z,18.9
2022-09-16T03:23:03.587Z,19
2022-09-16T03:24:01.027Z,19
2022-09-16T03:25:01.035Z,19.2
2022-09-16T03:26:01.042Z,18.8
2022-09-16T03:27:01.795Z,18.9
2022-09-16T03:28:06.321Z,18.7
2022-09-16T03:29:02.262Z,18.8
2022-09-16T03:30:03.100Z,19
2022-09-16T03:31:01.980Z,19.1
2022-09-16T03:32:01.102Z,18.9
2022-09-16T03:33:09.390Z,18.7
2022-09-16T03:34:01.385Z,18.9
2022-09-16T03:35:01.319Z,19.4
2022-09-16T03:36:01.486Z,19.2
2022-09-16T03:37:01.123Z,19.3
2022-09-16T03:38:13.011Z,19.2
2022-09-16T03:39:01.147Z,19.2
2022-09-16T03:40:01.061Z,19.9
2022-09-16T03:41:01.134Z,19.5
2022-09-16T03:42:01.062Z,19.7
2022-09-16T03:43:15.137Z,19.5
2022-09-16T03:44:04.476Z,19.7
2022-09-16T03:45:01.301Z,19.6
2022-09-16T03:46:01.571Z,19.7
2022-09-16T03:47:02.082Z,19.7
2022-09-16T03:48:16.745Z,20
2022-09-16T03:49:01.107Z,20
2022-09-16T03:50:01.022Z,19.9
2022-09-16T03:51:01.099Z,19.8
2022-09-16T03:52:01.118Z,19.8
2022-09-16T03:53:01.115Z,19.6
2022-09-16T03:54:01.139Z,19.4
2022-09-16T03:55:01.306Z,19.8
2022-09-16T03:56:01.516Z,19.8
2022-09-16T03:57:01.181Z,19.8
2022-09-16T03:58:01.054Z,19.8
2022-09-16T03:59:00.958Z,20.2
2022-09-16T04:00:01.847Z,20
2022-09-16T04:01:01.068Z,19.9
2022-09-16T04:02:01.159Z,20
2022-09-16T04:03:01.107Z,19.9
2022-09-16T04:04:01.438Z,19.8
2022-09-16T04:05:02.141Z,19.8
2022-09-16T04:06:02.293Z,20
2022-09-16T04:07:02.032Z,20.1
2022-09-16T04:08:01.915Z,20.2
2022-09-16T04:09:01.137Z,20
2022-09-16T04:10:00.889Z,20.2
2022-09-16T04:11:01.134Z,20.2
2022-09-16T04:12:01.159Z,20.7
2022-09-16T04:13:01.044Z,20.2
2022-09-16T04:14:01.161Z,20.2
2022-09-16T04:15:01.265Z,20.1
2022-09-16T04:16:01.189Z,20
2022-09-16T04:17:01.088Z,20
2022-09-16T04:18:01.069Z,20.1
2022-09-16T04:19:01.081Z,20.1
2022-09-16T04:20:01.251Z,20.2
2022-09-16T04:21:01.258Z,20.1
2022-09-16T04:22:01.309Z,20.2
2022-09-16T04:23:01.486Z,20.2
2022-09-16T04:24:01.133Z,20.1
2022-09-16T04:25:01.030Z,20.1
2022-09-16T04:26:01.119Z,20.1
2022-09-16T04:27:01.137Z,20.6
2022-09-16T04:28:00.794Z,20.5
2022-09-16T04:29:01.419Z,20.1
2022-09-16T04:30:02.504Z,20.1
2022-09-16T04:31:01.331Z,20.1
2022-09-16T04:32:01.372Z,20.1
2022-09-16T04:33:01.076Z,20.1
2022-09-16T04:34:01.469Z,20.1
2022-09-16T04:35:01.031Z,20.1
2022-09-16T04:36:01.087Z,20
2022-09-16T04:37:01.119Z,20
2022-09-16T04:38:01.425Z,20
2022-09-16T04:39:01.145Z,20
2022-09-16T04:40:04.730Z,20.1
2022-09-16T04:41:01.549Z,20.3
2022-09-16T04:42:01.515Z,20.3
2022-09-16T04:43:01.257Z,20.6
2022-09-16T04:44:00.820Z,20.7
2022-09-16T04:45:00.440Z,20.6
2022-09-16T04:46:00.253Z,20.8
2022-09-16T04:46:59.863Z,21
2022-09-16T04:48:02.119Z,20.7
2022-09-16T04:49:01.507Z,20.6
2022-09-16T04:50:01.210Z,20.5
2022-09-16T04:51:00.973Z,21
2022-09-16T04:52:01.109Z,21.3
2022-09-16T04:53:01.025Z,21.3
2022-09-16T04:54:01.127Z,21
2022-09-16T04:55:01.263Z,20.9
2022-09-16T04:56:01.829Z,20.5
2022-09-16T04:57:01.689Z,20.2
2022-09-16T04:58:01.139Z,20.5
2022-09-16T04:59:01.148Z,20.5
2022-09-16T05:00:01.044Z,20.4
2022-09-16T05:01:01.072Z,20.4
2022-09-16T05:02:01.222Z,20.3
2022-09-16T05:03:01.267Z,20.1
2022-09-16T05:04:01.131Z,20
2022-09-16T05:05:01.713Z,20
2022-09-16T05:06:01.492Z,20
2022-09-16T05:07:01.215Z,20
2022-09-16T05:08:00.887Z,20
2022-09-16T05:09:03.451Z,19.8
2022-09-16T05:10:01.105Z,20
2022-09-16T05:11:00.800Z,19.7
2022-09-16T05:12:00.516Z,19.7
2022-09-16T05:13:00.106Z,19.9
2022-09-16T05:14:07.178Z,20
2022-09-16T05:15:01.133Z,19.9
2022-09-16T05:16:01.375Z,19.9
2022-09-16T05:17:01.065Z,19.9
2022-09-16T05:18:01.055Z,19.9
2022-09-16T05:19:11.344Z,19.9
2022-09-16T05:20:00.627Z,19.9
2022-09-16T05:21:00.262Z,20
2022-09-16T05:21:59.856Z,20
2022-09-16T05:23:01.818Z,20
2022-09-16T05:24:13.860Z,20
2022-09-16T05:25:01.789Z,19.8
2022-09-16T05:26:01.104Z,19
2022-09-16T05:27:01.133Z,18.9
2022-09-16T05:28:01.375Z,18.5
2022-09-16T05:29:14.937Z,18.1
2022-09-16T05:30:01.508Z,17.7
2022-09-16T05:31:00.751Z,17.3
2022-09-16T05:32:00.453Z,16.8
2022-09-16T05:33:00.035Z,16.4
2022-09-16T05:33:59.627Z,15.9
2022-09-16T05:35:01.733Z,15.7
2022-09-16T05:36:01.760Z,15.9
2022-09-16T05:37:01.987Z,15.6
2022-09-16T05:38:01.259Z,15.6
2022-09-16T05:39:22.292Z,15.6
2022-09-16T05:40:01.055Z,15.6
2022-09-16T05:41:00.895Z,15.6
2022-09-16T05:42:00.596Z,15.7
2022-09-16T05:43:00.315Z,15.9
2022-09-16T05:43:59.986Z,16.1
2022-09-16T05:44:59.568Z,16.1
2022-09-16T05:46:01.605Z,16.3
2022-09-16T05:47:01.552Z,16.7
2022-09-16T05:48:01.476Z,16.4
2022-09-16T05:49:02.085Z,16.7
2022-09-16T05:50:01.843Z,17
2022-09-16T05:51:00.751Z,17
2022-09-16T05:52:00.388Z,17.1
2022-09-16T05:52:59.972Z,17.4
2022-09-16T05:54:00.028Z,17.7
2022-09-16T05:54:59.647Z,18
2022-09-16T05:56:01.780Z,18
2022-09-16T05:57:06.671Z,18.1
2022-09-16T05:58:01.342Z,18.3
2022-09-16T05:59:01.061Z,18.2
2022-09-16T06:00:01.236Z,18.3
2022-09-16T06:01:01.167Z,18.3
2022-09-16T06:02:04.360Z,18.2
2022-09-16T06:03:01.073Z,18.2
2022-09-16T06:04:01.062Z,18.3
2022-09-16T06:05:01.683Z,18.4
2022-09-16T06:06:01.467Z,18.3
2022-09-16T06:07:01.451Z,18.1
2022-09-16T06:08:02.169Z,17.7
2022-09-16T06:09:01.084Z,17.6
2022-09-16T06:10:01.087Z,18
2022-09-16T06:11:00.782Z,18.1
2022-09-16T06:12:02.289Z,18
2022-09-16T06:13:02.549Z,18.1
2022-09-16T06:14:01.488Z,17.9
2022-09-16T06:15:02.249Z,18.1
2022-09-16T06:16:10.143Z,18.3
2022-09-16T06:17:09.189Z,18.6
2022-09-16T06:18:06.092Z,18.7
2022-09-16T06:19:01.394Z,18.8
2022-09-16T06:20:01.777Z,18.8
2022-09-16T06:21:02.022Z,18.5
2022-09-16T06:22:01.086Z,18.1
2022-09-16T06:23:01.101Z,18.1
2022-09-16T06:24:01.076Z,17.9
2022-09-16T06:25:01.107Z,17.7
2022-09-16T06:26:01.118Z,17.8
2022-09-16T06:27:01.114Z,18
2022-09-16T06:28:01.113Z,17.7
2022-09-16T06:29:01.146Z,17.7
2022-09-16T06:30:01.131Z,17.3
2022-09-16T06:31:01.031Z,16.8
2022-09-16T06:32:01.285Z,16.7
2022-09-16T06:33:01.338Z,17.1
2022-09-16T06:34:01.144Z,17.2
2022-09-16T06:35:00.904Z,17
2022-09-16T06:36:01.040Z,17.3
2022-09-16T06:37:01.234Z,17.3
2022-09-16T06:38:01.099Z,17
2022-09-16T06:39:01.210Z,17
2022-09-16T06:40:01.166Z,17.5
2022-09-16T06:41:01.101Z,17.1
2022-09-16T06:42:01.679Z,16.9
2022-09-16T06:43:01.702Z,16.9
2022-09-16T06:44:02.455Z,17
2022-09-16T06:45:03.326Z,17.2
2022-09-16T06:46:02.951Z,17
2022-09-16T06:47:01.363Z,16.6
2022-09-16T06:48:01.146Z,16.5
2022-09-16T06:49:05.443Z,16.1
2022-09-16T06:50:06.268Z,16.2
2022-09-16T06:51:01.984Z,16.2
2022-09-16T06:52:01.486Z,16.4
2022-09-16T06:53:01.077Z,16.3
2022-09-16T06:54:01.088Z,16.1
2022-09-16T06:55:08.632Z,16.2
2022-09-16T06:56:01.096Z,16.6
2022-09-16T06:57:01.202Z,16.8
2022-09-16T06:58:01.104Z,17.1
2022-09-16T06:59:01.141Z,16.8
2022-09-16T07:00:12.092Z,16.8
2022-09-16T07:01:01.129Z,16.7
2022-09-16T07:02:01.193Z,16.2
2022-09-16T07:03:01.772Z,16.3
2022-09-16T07:04:01.141Z,15.8
2022-09-16T07:05:14.449Z,15.9
2022-09-16T07:06:01.872Z,15.3
2022-09-16T07:07:10.009Z,15.3
2022-09-16T07:08:00.748Z,15.7
2022-09-16T07:09:00.691Z,15.5
2022-09-16T07:10:00.354Z,15.7
2022-09-16T07:10:59.972Z,15.3
2022-09-16T07:11:59.670Z,15.4
2022-09-16T07:13:01.840Z,15.3
2022-09-16T07:14:01.122Z,14.5
2022-09-16T07:15:01.116Z,14.6
2022-09-16T07:16:16.495Z,14.6
2022-09-16T07:17:01.550Z,14.3
2022-09-16T07:18:01.255Z,14.3
2022-09-16T07:19:01.468Z,14.2
2022-09-16T07:20:01.442Z,13.8
2022-09-16T07:21:02.092Z,13.7
2022-09-16T07:22:01.052Z,13.1
2022-09-16T07:23:01.085Z,13.2
2022-09-16T07:24:01.071Z,12.9
2022-09-16T07:25:01.165Z,12.9
2022-09-16T07:26:01.541Z,12.7
2022-09-16T07:27:02.167Z,12.5
2022-09-16T07:28:01.381Z,12.4
2022-09-16T07:29:02.240Z,12.8
2022-09-16T07:30:02.690Z,12.8
2022-09-16T07:31:01.673Z,12.6
2022-09-16T07:32:01.779Z,12.7
2022-09-16T07:33:01.200Z,12.9
2022-09-16T07:34:04.022Z,12.7
2022-09-16T07:35:01.148Z,11.8
2022-09-16T07:36:01.269Z,11.8
2022-09-16T07:37:01.463Z,11.3
2022-09-16T07:38:01.210Z,10.6
2022-09-16T07:39:01.086Z,10.9
2022-09-16T07:40:02.151Z,10.7
2022-09-16T07:41:01.424Z,10.4
2022-09-16T07:42:05.708Z,10.4
2022-09-16T07:43:02.090Z,10.4
2022-09-16T07:44:01.494Z,10.5
2022-09-16T07:45:01.215Z,10.4
2022-09-16T07:46:01.175Z,10.5
2022-09-16T07:47:01.413Z,10.1
2022-09-16T07:48:01.494Z,10
2022-09-16T07:49:01.195Z,10
2022-09-16T07:50:01.122Z,10.3
2022-09-16T07:51:01.454Z,10.3
2022-09-16T07:52:02.062Z,10
2022-09-16T07:53:01.194Z,9.8
2022-09-16T07:54:01.062Z,9.7
2022-09-16T07:55:01.175Z,9.9
2022-09-16T07:56:01.215Z,9.7
2022-09-16T07:57:01.071Z,9.4
2022-09-16T07:58:01.084Z,9.1
2022-09-16T07:59:01.186Z,8.6
2022-09-16T08:00:01.094Z,9.1
2022-09-16T08:01:04.634Z,9.3
2022-09-16T08:02:01.586Z,9.5
2022-09-16T08:03:01.761Z,9.1
2022-09-16T08:04:01.308Z,8.3
2022-09-16T08:05:01.132Z,8.1
2022-09-16T08:06:01.046Z,7.8
2022-09-16T08:07:01.141Z,8
2022-09-16T08:08:01.424Z,7.9
2022-09-16T08:09:10.015Z,7.8
2022-09-16T08:10:02.866Z,8
2022-09-16T08:11:00.879Z,8.1
2022-09-16T08:12:01.072Z,8.3
2022-09-16T08:13:01.169Z,7.4
2022-09-16T08:14:01.182Z,7.7
2022-09-16T08:15:01.433Z,7.8
2022-09-16T08:16:01.114Z,7.8
2022-09-16T08:17:01.052Z,8.1
2022-09-16T08:18:01.057Z,7.7
2022-09-16T08:19:01.121Z,7.7
2022-09-16T08:20:01.123Z,7.7
2022-09-16T08:21:01.543Z,7.7
2022-09-16T08:22:01.548Z,8
2022-09-16T08:23:02.156Z,8.3
2022-09-16T08:24:01.216Z,8.2
2022-09-16T08:25:01.079Z,8.2
2022-09-16T08:26:02.832Z,8.4
2022-09-16T08:27:01.361Z,8.4
2022-09-16T08:28:01.371Z,8.8
2022-09-16T08:29:10.140Z,8.9
2022-09-16T08:30:01.092Z,8.2
2022-09-16T08:31:05.202Z,7.8
2022-09-16T08:32:01.476Z,7.9
2022-09-16T08:33:01.572Z,7.5
2022-09-16T08:34:01.231Z,6.5
2022-09-16T08:35:01.128Z,6.5
2022-09-16T08:36:09.823Z,6.8
2022-09-16T08:37:01.424Z,6
2022-09-16T08:38:01.739Z,5.9
2022-09-16T08:39:01.490Z,5.7
2022-09-16T08:40:01.670Z,5.2
2022-09-16T08:41:12.741Z,4.7
2022-09-16T08:42:01.035Z,4.9
2022-09-16T08:43:01.081Z,4.8
2022-09-16T08:44:01.070Z,4.2
2022-09-16T08:45:01.080Z,4.2
2022-09-16T08:46:15.681Z,4.5
2022-09-16T08:47:01.292Z,3.5
2022-09-16T08:48:02.230Z,3.1
2022-09-16T08:49:04.153Z,3.7
2022-09-16T08:50:01.206Z,4.1
2022-09-16T08:51:00.811Z,4.2
2022-09-16T08:52:00.428Z,3.7
2022-09-16T08:52:59.986Z,3.3
2022-09-16T08:53:59.587Z,3.5
2022-09-16T08:55:01.737Z,3.9
2022-09-16T08:56:01.261Z,4.1
2022-09-16T08:57:01.077Z,3.6
2022-09-16T08:58:01.086Z,3.7
2022-09-16T08:59:01.648Z,3.6
2022-09-16T09:00:01.552Z,3.7
2022-09-16T09:01:01.525Z,3.6
2022-09-16T09:02:08.084Z,3.8
2022-09-16T09:03:01.407Z,4
2022-09-16T09:04:01.099Z,2.4
2022-09-16T09:05:01.300Z,1
2022-09-16T09:06:01.062Z,1
2022-09-16T09:07:01.613Z,1
2022-09-16T09:08:01.253Z,1
2022-09-16T09:09:01.443Z,1
2022-09-16T09:10:01.111Z,1
2022-09-16T09:11:01.059Z,1
2022-09-16T09:12:00.741Z,1
2022-09-16T09:13:01.350Z,1
2022-09-16T09:14:02.513Z,1
2022-09-16T09:15:01.540Z,1
2022-09-16T09:16:01.197Z,1
2022-09-16T09:17:01.465Z,1
2022-09-16T09:18:01.091Z,1
2022-09-16T09:19:01.098Z,1
2022-09-16T09:20:01.100Z,1
2022-09-16T09:21:01.044Z,1
2022-09-16T09:22:01.455Z,1
2022-09-16T09:23:01.565Z,1
2022-09-16T09:24:02.768Z,1
2022-09-16T09:25:01.877Z,1
2022-09-16T09:26:01.848Z,1
2022-09-16T09:27:01.925Z,1
2022-09-16T09:28:02.578Z,1
2022-09-16T09:29:01.030Z,1
2022-09-16T09:30:01.028Z,1
2022-09-16T09:31:01.505Z,1
2022-09-16T09:32:01.037Z,1
2022-09-16T09:33:01.184Z,1
2022-09-16T09:34:01.132Z,1
2022-09-16T09:35:01.036Z,1
2022-09-16T09:36:01.125Z,1
2022-09-16T09:37:01.135Z,1
2022-09-16T09:38:00.824Z,1
2022-09-16T09:39:00.667Z,1
2022-09-16T09:40:01.425Z,1
2022-09-16T09:41:01.460Z,1
2022-09-16T09:42:02.028Z,1
2022-09-16T09:43:01.051Z,1
2022-09-16T09:44:01.690Z,1
2022-09-16T09:45:02.410Z,1
2022-09-16T09:46:00.914Z,1
2022-09-16T09:47:00.594Z,1
2022-09-16T09:48:00.430Z,1
2022-09-16T09:49:00.169Z,1
2022-09-16T09:50:00.203Z,1
2022-09-16T09:51:00.247Z,1
2022-09-16T09:51:59.880Z,1.5
2022-09-16T09:52:59.581Z,1
2022-09-16T09:54:01.160Z,1
2022-09-16T09:55:01.126Z,1
2022-09-16T09:56:01.148Z,1
2022-09-16T09:57:01.046Z,1
2022-09-16T09:58:01.068Z,1
2022-09-16T09:59:01.040Z,1
2022-09-16T10:00:01.035Z,1
2022-09-16T10:01:02.107Z,1
2022-09-16T10:02:01.530Z,1
2022-09-16T10:03:01.085Z,1
2022-09-16T10:04:01.085Z,1
2022-09-16T10:05:01.352Z,1
2022-09-16T10:06:02.021Z,1
2022-09-16T10:08:01.106Z,1
2022-09-16T10:09:01.137Z,1
2022-09-16T10:10:01.449Z,1
2022-09-16T10:11:01.271Z,1
2022-09-16T10:12:01.269Z,1
2022-09-16T10:13:01.974Z,1
2022-09-16T10:14:01.735Z,1
2022-09-16T10:15:01.098Z,1
2022-09-16T10:16:01.137Z,1
2022-09-16T10:17:01.079Z,1
2022-09-16T10:18:01.075Z,1
2022-09-16T10:19:01.087Z,1
2022-09-16T10:20:01.090Z,1
2022-09-16T10:21:03.969Z,1
2022-09-16T10:22:02.145Z,1
2022-09-16T10:23:01.108Z,1
2022-09-16T10:24:01.046Z,1
2022-09-16T10:25:01.121Z,1
2022-09-16T10:26:01.143Z,1
2022-09-16T10:27:04.085Z,1
2022-09-16T10:28:01.046Z,1
2022-09-16T10:29:01.059Z,1
2022-09-16T10:30:00.539Z,1
2022-09-16T10:31:00.255Z,1
2022-09-16T10:32:05.602Z,1
2022-09-16T10:33:01.474Z,1
2022-09-16T10:34:01.091Z,1
2022-09-16T10:35:01.088Z,1
2022-09-16T10:36:01.108Z,1
2022-09-16T10:37:08.968Z,1
2022-09-16T10:38:01.396Z,1
2022-09-16T10:39:04.621Z,1
2022-09-16T10:40:02.166Z,1
2022-09-16T10:41:01.045Z,1
2022-09-16T10:42:11.335Z,1
2022-09-16T10:43:01.345Z,1
2022-09-16T10:44:01.930Z,1
2022-09-16T10:45:02.735Z,1
2022-09-16T10:46:01.977Z,1
2022-09-16T10:47:14.751Z,1
2022-09-16T10:48:03.458Z,1
2022-09-16T10:49:02.148Z,1
2022-09-16T10:50:01.603Z,1.4
2022-09-16T10:51:01.069Z,3.7
2022-09-16T10:52:00.806Z,2.6
2022-09-16T10:53:00.369Z,2.7
2022-09-16T10:53:59.969Z,3.4
2022-09-16T10:54:59.592Z,4.8
2022-09-16T10:56:01.682Z,6
2022-09-16T10:57:01.128Z,7.7
2022-09-16T10:58:01.145Z,7.7
2022-09-16T10:59:02.131Z,6.9
2022-09-16T11:00:01.051Z,8.8
2022-09-16T11:01:01.831Z,9.1
2022-09-16T11:02:01.406Z,10.5
2022-09-16T11:03:01.077Z,11.5
2022-09-16T11:04:01.746Z,11.5
2022-09-16T11:05:01.679Z,11.6
2022-09-16T11:06:01.418Z,11.5
2022-09-16T11:07:01.048Z,8.5
2022-09-16T11:08:01.448Z,9.5
2022-09-16T11:09:01.032Z,9.9
2022-09-16T11:10:01.130Z,9.2
2022-09-16T11:11:01.135Z,8
2022-09-16T11:12:00.842Z,7.8
2022-09-16T11:13:00.515Z,8.5
2022-09-16T11:14:00.296Z,6.6
2022-09-16T11:15:00.009Z,7.8
2022-09-16T11:15:59.795Z,7
2022-09-16T11:17:01.459Z,4.4
2022-09-16T11:18:01.026Z,4.5
2022-09-16T11:19:01.029Z,5.1
2022-09-16T11:20:03.683Z,4.2
2022-09-16T11:21:01.086Z,5.8
2022-09-16T11:22:01.805Z,3.4
2022-09-16T11:23:02.044Z,3.8
2022-09-16T11:24:01.714Z,2.2
2022-09-16T11:25:01.120Z,2.3
2022-09-16T11:26:01.042Z,2
2022-09-16T11:27:01.553Z,1.7
2022-09-16T11:28:01.130Z,1
2022-09-16T11:29:01.251Z,1
2022-09-16T11:30:01.138Z,1
2022-09-16T11:31:01.063Z,1
2022-09-16T11:32:01.010Z,1
2022-09-16T11:33:02.942Z,1
2022-09-16T11:34:02.392Z,1
2022-09-16T11:35:01.122Z,1
2022-09-16T11:36:01.463Z,1
2022-09-16T11:37:01.466Z,1
2022-09-16T11:38:01.233Z,1
2022-09-16T11:39:01.552Z,1
2022-09-16T11:40:01.622Z,1
2022-09-16T11:41:01.114Z,1
2022-09-16T11:42:01.121Z,1
2022-09-16T11:43:01.506Z,1
2022-09-16T11:44:01.123Z,1
2022-09-16T11:45:01.180Z,1
2022-09-16T11:46:01.441Z,1
2022-09-16T11:47:01.119Z,1
2022-09-16T11:48:01.059Z,1
2022-09-16T11:49:01.073Z,1
2022-09-16T11:50:01.072Z,1
2022-09-16T11:51:01.446Z,1
2022-09-16T11:52:00.667Z,1
2022-09-16T11:53:04.816Z,1
2022-09-16T11:54:01.908Z,1
2022-09-16T11:55:01.212Z,1
2022-09-16T11:56:01.184Z,1
2022-09-16T11:57:01.031Z,1
2022-09-16T11:58:01.177Z,1
2022-09-16T11:59:01.415Z,1
2022-09-16T12:00:01.384Z,1
2022-09-16T12:01:02.196Z,1
2022-09-16T12:02:01.150Z,1
2022-09-16T12:03:03.552Z,1
2022-09-16T12:04:01.439Z,1
2022-09-16T12:05:01.546Z,1
2022-09-16T12:06:01.082Z,1
2022-09-16T12:07:01.119Z,1
2022-09-16T12:08:04.806Z,1
2022-09-16T12:09:01.404Z,1
2022-09-16T12:10:01.515Z,1
2022-09-16T12:11:01.711Z,1
2022-09-16T12:12:02.126Z,1
2022-09-16T12:13:08.049Z,1
2022-09-16T12:14:06.079Z,1
2022-09-16T12:15:04.842Z,1
2022-09-16T12:16:01.273Z,1
2022-09-16T12:17:01.390Z,1
2022-09-16T12:18:10.264Z,1
2022-09-16T12:19:01.052Z,1
2022-09-16T12:20:01.059Z,1
2022-09-16T12:21:01.061Z,1
2022-09-16T12:22:01.086Z,1
2022-09-16T12:23:11.578Z,1
2022-09-16T12:24:03.833Z,1
2022-09-16T12:25:01.152Z,1
2022-09-16T12:26:01.471Z,1
2022-09-16T12:27:01.395Z,1
2022-09-16T12:28:14.166Z,1
2022-09-16T12:29:01.124Z,1
2022-09-16T12:30:01.136Z,2.1
2022-09-16T12:31:01.220Z,1.4
2022-09-16T12:32:01.961Z,1.7
2022-09-16T12:33:16.926Z,2
2022-09-16T12:34:01.042Z,1.5
2022-09-16T12:35:00.569Z,2
2022-09-16T12:36:00.139Z,2.8
2022-09-16T12:36:59.679Z,3.3
2022-09-16T12:38:01.331Z,3.6
2022-09-16T12:39:02.004Z,3.5
2022-09-16T12:40:02.069Z,3.6
2022-09-16T12:41:01.107Z,3.4
2022-09-16T12:42:01.726Z,3.3
2022-09-16T12:43:01.128Z,1.5
2022-09-16T12:44:16.989Z,1
2022-09-16T12:45:00.807Z,1
2022-09-16T12:46:00.468Z,1
2022-09-16T12:47:00.153Z,1
2022-09-16T12:47:59.743Z,1
2022-09-16T12:49:01.426Z,1
2022-09-16T12:50:01.265Z,1
2022-09-16T12:51:01.097Z,1
2022-09-16T12:52:01.079Z,1
2022-09-16T12:53:01.070Z,1
2022-09-16T12:54:01.070Z,1
2022-09-16T12:55:08.975Z,1
2022-09-16T12:56:01.101Z,1
2022-09-16T12:57:01.115Z,1
2022-09-16T12:58:01.127Z,1
2022-09-16T12:59:01.120Z,1
2022-09-16T13:00:01.457Z,1
2022-09-16T13:01:01.923Z,1
2022-09-16T13:02:01.595Z,1
2022-09-16T13:03:01.167Z,1
2022-09-16T13:04:01.027Z,1
2022-09-16T13:05:01.050Z,1
2022-09-16T13:06:01.028Z,1
2022-09-16T13:07:01.375Z,1
2022-09-16T13:08:01.378Z,1
2022-09-16T13:09:01.758Z,1
2022-09-16T13:10:01.354Z,1
2022-09-16T13:11:35.502Z,1
2022-09-16T13:12:36.692Z,1
2022-09-16T13:13:01.308Z,1
2022-09-16T13:14:03.117Z,1
2022-09-16T13:15:00.998Z,1
2022-09-16T13:16:01.625Z,1
2022-09-16T13:17:01.504Z,1
2022-09-16T13:18:01.155Z,1
2022-09-16T13:19:01.244Z,1
2022-09-16T13:20:01.149Z,1
2022-09-16T13:21:01.599Z,1
2022-09-16T13:22:01.845Z,1
2022-09-16T13:23:01.785Z,1.4
2022-09-16T13:24:01.443Z,1.4
2022-09-16T13:25:06.105Z,1.3
2022-09-16T13:26:02.298Z,1.5
2022-09-16T13:27:01.040Z,1
2022-09-16T13:28:01.101Z,1
2022-09-16T13:29:01.105Z,1
2022-09-16T13:30:01.100Z,1
2022-09-16T13:31:01.200Z,1
2022-09-16T13:32:01.131Z,1
2022-09-16T13:33:01.137Z,1
2022-09-16T13:34:01.435Z,1
2022-09-16T13:35:01.438Z,1
2022-09-16T13:36:01.647Z,1
2022-09-16T13:37:01.064Z,1
2022-09-16T13:38:01.084Z,1
2022-09-16T13:39:01.151Z,1
2022-09-16T13:40:01.054Z,1
2022-09-16T13:41:01.082Z,1
2022-09-16T13:42:01.614Z,1
2022-09-16T13:43:01.509Z,1
2022-09-16T13:44:01.361Z,1
2022-09-16T13:45:01.341Z,1
2022-09-16T13:46:02.141Z,1
2022-09-16T13:47:01.519Z,1
2022-09-16T13:48:01.248Z,1
2022-09-16T13:49:01.883Z,1
2022-09-16T13:50:01.167Z,1
2022-09-16T13:51:01.158Z,1